Time;durP1;ratioP1;P1;durP2;ratioP2;P2;SDS_P1;SDS_P2;PMS_P1;PMS_P2;Temp;Humidity;BMP_temperature;BMP_pressure;BME280_temperature;BME280_humidity;BME280_pressure;Samples;Min_cycle;Max_cycle;Signal;HPM_P1;HPM_P2
2022/12/11 00:01:59;;;;;;;29.20;13.68;;;0.70;69.70;;;;;;4968573;28;46365;-65
2022/12/11 00:04:25;;;;;;;27.07;14.53;;;0.70;69.90;;;;;;4968754;28;46634;-64
2022/12/11 00:06:51;;;;;;;29.27;15.43;;;0.70;70.00;;;;;;4969993;28;46582;-65
2022/12/11 00:09:17;;;;;;;29.63;14.10;;;0.70;68.90;;;;;;4967736;28;46367;-65
2022/12/11 00:11:43;;;;;;;28.15;15.85;;;0.70;70.00;;;;;;4971883;28;46392;-65
2022/12/11 00:14:09;;;;;;;29.43;14.73;;;0.70;69.60;;;;;;4971495;28;46526;-64
2022/12/11 00:16:34;;;;;;;25.50;13.07;;;0.80;69.60;;;;;;4968753;28;46384;-65
2022/12/11 00:19:00;;;;;;;27.63;14.70;;;0.80;68.70;;;;;;4968786;28;46731;-65
2022/12/11 00:21:26;;;;;;;32.13;15.20;;;0.80;69.50;;;;;;4971333;28;46551;-65
2022/12/11 00:23:52;;;;;;;24.37;13.40;;;0.80;69.40;;;;;;4969163;28;46385;-65
2022/12/11 00:26:17;;;;;;;25.80;14.02;;;0.80;69.30;;;;;;4969675;28;46187;-65
2022/12/11 00:28:44;;;;;;;27.83;13.73;;;0.80;69.40;;;;;;4971566;28;46427;-64
2022/12/11 00:31:14;;;;;;;25.77;13.57;;;0.80;68.50;;;;;;4968607;28;46506;-65
2022/12/11 00:33:40;;;;;;;24.33;13.57;;;0.80;69.50;;;;;;4971357;28;46609;-65
2022/12/11 00:36:12;;;;;;;28.65;14.38;;;0.90;69.40;;;;;;4968745;28;46423;-65
2022/12/11 00:38:37;;;;;;;25.42;13.23;;;0.90;69.10;;;;;;4969863;28;46408;-65
2022/12/11 00:41:03;;;;;;;23.93;13.10;;;0.90;68.00;;;;;;4984309;28;45936;-64
2022/12/11 00:43:29;;;;;;;31.50;14.27;;;0.90;69.10;;;;;;4968176;28;46358;-65
2022/12/11 00:45:54;;;;;;;22.38;12.27;;;1.00;69.40;;;;;;4968383;28;46343;-65
2022/12/11 00:48:20;;;;;;;29.90;14.87;;;0.90;69.30;;;;;;4973159;28;46532;-64
2022/12/11 00:50:46;;;;;;;26.57;14.23;;;0.90;68.20;;;;;;4969434;28;46622;-65
2022/12/11 00:53:11;;;;;;;24.47;13.33;;;0.90;69.40;;;;;;4970635;28;46360;-65
2022/12/11 00:55:39;;;;;;;27.83;14.30;;;0.90;69.60;;;;;;4969485;28;46383;-64
2022/12/11 00:58:04;;;;;;;28.52;13.70;;;0.90;69.60;;;;;;4970653;28;46410;-65
2022/12/11 01:00:30;;;;;;;23.67;13.00;;;0.90;68.80;;;;;;4970835;28;46590;-65
2022/12/11 01:02:56;;;;;;;28.60;13.33;;;0.80;70.00;;;;;;4974556;28;46701;-65
2022/12/11 01:05:21;;;;;;;24.27;13.47;;;0.70;70.00;;;;;;4970256;28;46425;-65
2022/12/11 01:07:47;;;;;;;21.87;12.20;;;0.70;69.90;;;;;;4973620;28;46454;-66
2022/12/11 01:10:25;;;;;;;22.50;12.70;;;0.70;68.90;;;;;;4972421;28;46460;-65
2022/12/11 01:13:02;;;;;;;24.42;12.60;;;0.60;70.00;;;;;;4972625;28;46649;-66
2022/12/11 01:15:37;;;;;;;24.02;12.35;;;0.60;69.90;;;;;;4973141;28;46478;-65
2022/12/11 01:18:02;;;;;;;25.40;12.73;;;0.50;69.80;;;;;;4974127;28;46311;-65
2022/12/11 01:20:28;;;;;;;20.97;12.03;;;0.40;68.70;;;;;;4972263;28;46485;-65
2022/12/11 01:22:56;;;;;;;22.50;12.30;;;0.30;69.60;;;;;;4970062;28;46818;-65
2022/12/11 01:25:22;;;;;;;27.10;12.65;;;0.30;69.60;;;;;;4971310;28;46447;-65
2022/12/11 01:27:52;;;;;;;25.70;12.80;;;0.30;69.60;;;;;;4974012;28;45864;-65
2022/12/11 01:30:19;;;;;;;25.58;12.05;;;0.30;68.60;;;;;;4971772;28;46375;-65
2022/12/11 01:32:44;;;;;;;23.17;12.80;;;0.30;69.60;;;;;;4976021;28;47055;-65
2022/12/11 01:35:11;;;;;;;23.93;12.20;;;0.20;69.50;;;;;;4972638;28;46406;-66
2022/12/11 01:37:37;;;;;;;26.23;12.45;;;0.20;69.50;;;;;;4970824;28;46466;-66
2022/12/11 01:40:05;;;;;;;22.40;11.13;;;0.30;68.60;;;;;;4971376;28;46471;-65
2022/12/11 01:42:30;;;;;;;22.08;11.80;;;0.30;69.60;;;;;;4976196;28;49377;-65
2022/12/11 01:45:21;;;;;;;21.90;11.90;;;0.40;69.80;;;;;;4975971;28;46293;-65
2022/12/11 01:47:51;;;;;;;23.17;11.95;;;0.40;69.70;;;;;;4972831;28;46384;-65
2022/12/11 01:50:17;;;;;;;21.48;11.23;;;0.40;68.50;;;;;;4986397;28;46385;-65
2022/12/11 01:52:45;;;;;;;21.13;11.37;;;0.40;69.40;;;;;;4973755;28;46441;-65
2022/12/11 01:55:11;;;;;;;24.95;12.63;;;0.40;69.20;;;;;;4974215;28;46395;-65
2022/12/11 01:57:40;;;;;;;24.17;12.63;;;0.40;69.20;;;;;;4974997;28;45942;-65
2022/12/11 02:00:06;;;;;;;23.33;11.68;;;0.40;68.20;;;;;;4973850;28;46368;-65
2022/12/11 02:02:32;;;;;;;20.88;11.05;;;0.40;69.40;;;;;;4971311;28;46429;-66
2022/12/11 02:05:04;;;;;;;23.83;11.57;;;0.50;69.20;;;;;;4971667;28;46489;-65
2022/12/11 02:07:36;;;;;;;22.42;12.55;;;0.50;68.90;;;;;;4974400;28;46451;-64
2022/12/11 02:10:02;;;;;;;26.80;13.63;;;0.50;67.80;;;;;;4973643;28;46425;-66
2022/12/11 02:12:46;;;;;;;22.48;12.15;;;0.50;69.00;;;;;;4973005;28;46587;-64
2022/12/11 02:15:24;;;;;;;22.17;12.00;;;0.50;69.00;;;;;;4973643;28;46747;-65
2022/12/11 02:17:57;;;;;;;26.17;12.70;;;0.50;69.00;;;;;;4973641;28;46590;-65
2022/12/11 02:20:26;;;;;;;23.20;11.75;;;0.50;68.00;;;;;;4973823;28;46429;-65
2022/12/11 02:23:04;;;;;;;22.30;12.02;;;0.60;69.10;;;;;;4973063;28;46376;-66
2022/12/11 02:26:02;;;;;;;24.10;13.07;;;0.60;68.90;;;;;;4982250;28;46408;-65
2022/12/11 02:28:52;;;;;;;25.20;12.63;;;0.40;69.30;;;;;;4969045;28;46773;-65
2022/12/11 02:31:52;;;;;;;20.95;11.60;;;0.40;68.70;;;;;;4971451;28;46599;-66
2022/12/11 02:34:39;;;;;;;20.70;11.70;;;0.30;69.60;;;;;;4970244;28;47654;-65
2022/12/11 02:37:09;;;;;;;25.20;12.63;;;0.20;69.50;;;;;;4972116;28;46524;-65
2022/12/11 02:39:39;;;;;;;24.92;13.10;;;0.10;68.40;;;;;;4970156;28;46425;-65
2022/12/11 02:42:06;;;;;;;23.40;12.32;;;0.10;69.40;;;;;;4971863;28;46377;-64
2022/12/11 02:44:33;;;;;;;20.17;11.52;;;0.00;69.30;;;;;;4969841;28;46418;-65
2022/12/11 02:47:02;;;;;;;24.90;13.00;;;0.00;69.40;;;;;;4978546;28;46479;-66
2022/12/11 02:49:30;;;;;;;24.55;13.15;;;-0.10;68.40;;;;;;4987959;28;46433;-65
2022/12/11 02:51:58;;;;;;;21.85;11.32;;;-0.10;69.60;;;;;;4972192;28;46313;-65
2022/12/11 02:54:30;;;;;;;21.77;12.00;;;-0.10;69.40;;;;;;4971081;28;46494;-65
2022/12/11 02:57:04;;;;;;;24.80;12.25;;;-0.10;69.40;;;;;;4970416;28;46460;-66
2022/12/11 02:59:34;;;;;;;24.70;11.95;;;-0.20;68.50;;;;;;4968841;28;46460;-66
2022/12/11 03:02:01;;;;;;;21.63;11.00;;;-0.20;69.40;;;;;;4973244;28;46408;-65
2022/12/11 03:04:28;;;;;;;25.05;12.23;;;-0.20;69.40;;;;;;4971538;28;46367;-64
2022/12/11 03:06:58;;;;;;;25.15;12.65;;;-0.10;70.00;;;;;;4971508;28;46561;-64
2022/12/11 03:09:25;;;;;;;24.73;12.00;;;-0.50;69.20;;;;;;4970166;28;46507;-63
2022/12/11 03:11:51;;;;;;;23.50;12.05;;;-0.50;70.40;;;;;;4972280;28;45926;-65
2022/12/11 03:14:17;;;;;;;24.57;12.23;;;-0.60;70.40;;;;;;4971374;28;46438;-64
2022/12/11 03:17:02;;;;;;;21.90;11.37;;;-0.60;71.70;;;;;;4971833;28;46048;-64
2022/12/11 03:19:49;;;;;;;25.75;12.65;;;-0.70;69.30;;;;;;4967966;28;46514;-64
2022/12/11 03:22:16;;;;;;;25.08;12.68;;;-0.60;70.40;;;;;;4969629;28;46543;-64
2022/12/11 03:24:42;;;;;;;26.08;12.65;;;-0.50;70.00;;;;;;4971290;28;47572;-65
2022/12/11 03:27:29;;;;;;;22.37;11.00;;;-0.40;69.20;;;;;;4969328;28;46472;-64
2022/12/11 03:30:18;;;;;;;22.60;11.98;;;-0.50;67.90;;;;;;4971708;28;46394;-64
2022/12/11 03:32:53;;;;;;;25.00;11.27;;;-0.60;69.20;;;;;;4968889;28;46289;-64
2022/12/11 03:35:29;;;;;;;24.30;12.18;;;-0.70;69.80;;;;;;4969829;28;46673;-64
2022/12/11 03:37:59;;;;;;;24.75;12.48;;;-0.90;70.00;;;;;;4970419;28;46431;-65
2022/12/11 03:40:25;;;;;;;24.50;12.73;;;-1.10;69.40;;;;;;4968268;28;46369;-63
2022/12/11 03:42:55;;;;;;;21.92;11.77;;;-1.20;70.60;;;;;;4969303;28;45824;-64
2022/12/11 03:45:23;;;;;;;23.60;11.52;;;-1.10;71.00;;;;;;4969525;28;46617;-65
2022/12/11 03:47:50;;;;;;;22.23;12.25;;;-1.30;70.90;;;;;;4970309;28;46372;-64
2022/12/11 03:50:18;;;;;;;25.95;12.80;;;-1.30;69.70;;;;;;4968909;28;46369;-65
2022/12/11 03:52:45;;;;;;;25.88;12.63;;;-1.20;70.50;;;;;;4967128;28;46661;-64
2022/12/11 03:55:13;;;;;;;21.88;12.07;;;-1.20;70.20;;;;;;4967544;28;47802;-64
2022/12/11 03:57:39;;;;;;;25.45;13.10;;;-1.10;69.90;;;;;;4970781;28;46013;-64
2022/12/11 04:00:11;;;;;;;27.17;13.10;;;-1.10;68.70;;;;;;4969002;28;46687;-64
2022/12/11 04:02:36;;;;;;;26.42;11.93;;;-1.00;69.60;;;;;;4973899;28;46686;-64
2022/12/11 04:05:02;;;;;;;27.63;13.67;;;-1.00;69.20;;;;;;4969019;28;47526;-64
2022/12/11 04:07:28;;;;;;;24.07;11.63;;;-0.90;68.60;;;;;;4972579;28;46330;-64
2022/12/11 04:09:54;;;;;;;22.50;11.53;;;-0.80;67.60;;;;;;4970704;28;46479;-65
2022/12/11 04:12:20;;;;;;;28.08;12.02;;;-0.80;68.70;;;;;;4970634;28;46448;-64
2022/12/11 04:15:00;;;;;;;25.60;12.70;;;-0.80;68.60;;;;;;4968286;28;46617;-64
2022/12/11 04:25:39;;;;;;;20.17;11.50;;;-0.40;69.00;;;;;;4966793;28;46401;-65
2022/12/11 04:28:05;;;;;;;19.17;10.97;;;-0.40;67.60;;;;;;4971552;28;46280;-64
2022/12/11 04:30:31;;;;;;;23.87;11.30;;;-0.40;67.60;;;;;;4972110;28;45900;-64
2022/12/11 04:32:56;;;;;;;21.93;11.07;;;-0.40;68.50;;;;;;4970702;28;46620;-64
2022/12/11 04:35:22;;;;;;;22.17;10.53;;;-0.40;68.50;;;;;;4967384;28;46344;-66
2022/12/11 04:37:48;;;;;;;20.00;11.23;;;-0.40;68.60;;;;;;4971288;28;46383;-64
2022/12/11 04:40:16;;;;;;;24.33;12.77;;;-0.40;67.90;;;;;;4971871;28;46661;-64
2022/12/11 04:42:42;;;;;;;21.80;10.70;;;-0.40;69.00;;;;;;4969750;28;46405;-64
2022/12/11 04:45:09;;;;;;;23.63;11.70;;;-0.40;69.00;;;;;;4970114;28;46748;-64
2022/12/11 04:47:36;;;;;;;22.08;10.95;;;-0.40;69.00;;;;;;4970326;28;46297;-65
2022/12/11 04:50:04;;;;;;;17.27;10.15;;;-0.40;67.90;;;;;;4969929;28;46112;-65
2022/12/11 04:52:30;;;;;;;23.60;12.20;;;-0.40;69.00;;;;;;4969605;28;46382;-64
2022/12/11 04:54:56;;;;;;;22.87;12.20;;;-0.40;69.00;;;;;;4967868;28;46520;-65
2022/12/11 04:57:22;;;;;;;19.37;11.10;;;-0.30;69.20;;;;;;4969621;28;46489;-64
2022/12/11 04:59:47;;;;;;;23.47;12.70;;;-0.40;67.90;;;;;;4971061;28;46440;-65
2022/12/11 05:02:14;;;;;;;21.63;11.70;;;-0.30;69.00;;;;;;4968692;28;46615;-65
2022/12/11 05:04:40;;;;;;;29.00;12.43;;;-0.30;69.10;;;;;;4967872;28;47376;-65
2022/12/11 05:07:08;;;;;;;25.48;12.13;;;-0.30;68.80;;;;;;4968977;28;46561;-64
2022/12/11 05:09:34;;;;;;;30.48;13.63;;;-0.30;67.40;;;;;;4969353;28;46527;-65
2022/12/11 05:12:00;;;;;;;24.95;12.30;;;-0.30;68.40;;;;;;4970186;28;46687;-64
2022/12/11 05:14:26;;;;;;;60.50;29.92;;;-0.10;68.60;;;;;;4965600;28;46566;-64
2022/12/11 05:16:52;;;;;;;30.45;15.25;;;-0.10;68.80;;;;;;4970629;28;46448;-64
2022/12/11 05:19:17;;;;;;;86.77;38.60;;;0.40;67.00;;;;;;4967535;28;46456;-65
2022/12/11 05:21:43;;;;;;;82.70;36.13;;;0.40;68.10;;;;;;4972098;28;46070;-66
2022/12/11 05:24:08;;;;;;;78.37;35.67;;;0.70;67.90;;;;;;4972632;28;47384;-64
2022/12/11 05:26:34;;;;;;;31.67;15.07;;;0.90;67.60;;;;;;4967768;28;46376;-63
2022/12/11 05:29:00;;;;;;;27.47;14.33;;;0.80;66.50;;;;;;4971244;28;45964;-64
2022/12/11 05:31:26;;;;;;;23.67;12.43;;;0.70;67.50;;;;;;4969006;28;46470;-64
2022/12/11 05:33:53;;;;;;;24.30;11.93;;;0.50;68.10;;;;;;4967396;28;46439;-64
2022/12/11 05:36:19;;;;;;;23.20;12.07;;;0.40;68.80;;;;;;4969721;28;46364;-64
2022/12/11 05:38:45;;;;;;;24.67;12.85;;;0.20;69.20;;;;;;4968707;28;46364;-64
2022/12/11 05:41:14;;;;;;;28.63;14.27;;;0.10;68.40;;;;;;4967759;28;46003;-65
2022/12/11 05:43:41;;;;;;;22.55;11.75;;;0.10;69.40;;;;;;4970262;28;47352;-65
2022/12/11 05:46:13;;;;;;;25.17;12.95;;;0.10;69.40;;;;;;4968882;28;46366;-66
2022/12/11 05:48:39;;;;;;;20.98;11.60;;;0.00;69.30;;;;;;4971985;28;46415;-65
2022/12/11 05:51:07;;;;;;;26.60;13.85;;;-0.10;68.20;;;;;;4973618;28;46508;-63
2022/12/11 05:53:32;;;;;;;26.17;12.70;;;0.00;69.40;;;;;;4968195;28;46594;-64
2022/12/11 05:56:07;;;;;;;21.00;12.40;;;-0.10;69.30;;;;;;4978047;28;46293;-65
2022/12/11 05:58:34;;;;;;;20.83;11.23;;;0.00;69.40;;;;;;4969394;28;46388;-65
2022/12/11 06:01:00;;;;;;;21.90;11.32;;;-0.10;68.00;;;;;;4973734;28;45923;-65
2022/12/11 06:03:26;;;;;;;23.95;11.15;;;0.00;68.90;;;;;;4973764;28;46440;-64
2022/12/11 06:05:52;;;;;;;23.80;12.80;;;0.00;68.90;;;;;;4972225;28;46495;-64
2022/12/11 06:08:17;;;;;;;23.40;11.93;;;0.00;69.00;;;;;;4972130;28;46450;-64
2022/12/11 06:10:47;;;;;;;20.20;10.90;;;-0.10;67.70;;;;;;4973042;28;46397;-64
2022/12/11 06:13:13;;;;;;;24.63;11.40;;;-0.10;68.80;;;;;;4971099;28;46380;-66
2022/12/11 06:15:39;;;;;;;18.92;10.40;;;0.00;68.90;;;;;;4971533;28;46867;-67
2022/12/11 06:18:04;;;;;;;21.37;11.00;;;-0.30;69.10;;;;;;4967170;28;46511;-66
2022/12/11 06:20:32;;;;;;;20.33;11.10;;;-0.30;68.10;;;;;;4971685;28;46028;-67
2022/12/11 06:22:58;;;;;;;23.35;11.70;;;-0.40;69.10;;;;;;4967806;28;46515;-67
2022/12/11 06:25:23;;;;;;;18.00;10.47;;;-0.40;69.00;;;;;;4973669;28;46390;-66
2022/12/11 06:27:49;;;;;;;20.03;11.00;;;-0.40;69.00;;;;;;4968862;28;46506;-66
2022/12/11 06:30:15;;;;;;;19.37;12.00;;;-0.40;68.00;;;;;;4970065;28;45937;-66
2022/12/11 06:32:41;;;;;;;22.55;11.35;;;-0.40;69.00;;;;;;4966969;28;47560;-67
2022/12/11 06:35:07;;;;;;;17.55;10.30;;;-0.40;68.90;;;;;;4967921;28;46841;-66
2022/12/11 06:37:35;;;;;;;18.67;9.30;;;-0.30;67.50;;;;;;4976399;28;46306;-67
2022/12/11 06:40:01;;;;;;;40.05;18.40;;;-0.40;67.50;;;;;;4971001;28;46344;-66
2022/12/11 06:42:29;;;;;;;108.10;41.45;;;-0.40;68.50;;;;;;4968627;28;46392;-66
2022/12/11 06:44:56;;;;;;;94.90;37.80;;;-0.50;68.50;;;;;;4968695;28;46592;-67
2022/12/11 06:47:22;;;;;;;109.00;42.03;;;-0.50;68.80;;;;;;4969930;28;46759;-66
2022/12/11 06:49:47;;;;;;;137.47;44.77;;;-0.80;67.60;;;;;;4970458;28;46652;-66
2022/12/11 06:52:13;;;;;;;196.40;66.83;;;-0.90;68.70;;;;;;4974259;28;47290;-66
2022/12/11 06:54:38;;;;;;;145.53;50.20;;;-1.20;69.00;;;;;;4971116;28;46670;-67
2022/12/11 06:57:04;;;;;;;125.63;46.47;;;-1.30;69.70;;;;;;4969272;28;46418;-66
2022/12/11 06:59:29;;;;;;;91.00;36.50;;;-1.70;69.40;;;;;;4968833;28;46502;-67
2022/12/11 07:01:55;;;;;;;67.77;30.33;;;-1.80;70.50;;;;;;4971532;28;46421;-66
2022/12/11 07:04:23;;;;;;;51.30;21.57;;;-1.90;70.60;;;;;;4969228;28;46454;-66
2022/12/11 07:06:49;;;;;;;36.38;16.98;;;-2.00;70.90;;;;;;4970894;28;46366;-65
2022/12/11 07:09:15;;;;;;;26.90;14.30;;;-2.30;69.90;;;;;;4970121;28;46523;-66
2022/12/11 07:11:40;;;;;;;29.17;14.10;;;-2.30;71.10;;;;;;4969679;28;46432;-66
2022/12/11 07:14:06;;;;;;;20.80;11.07;;;-2.40;71.10;;;;;;4971399;28;46392;-66
2022/12/11 07:16:31;;;;;;;26.47;16.40;;;-2.50;71.10;;;;;;4974843;28;45873;-65
2022/12/11 07:18:57;;;;;;;19.70;10.77;;;-2.70;70.30;;;;;;4970234;28;46602;-66
2022/12/11 07:21:23;;;;;;;21.50;11.40;;;-2.70;71.20;;;;;;4973694;28;46461;-65
2022/12/11 07:23:49;;;;;;;22.07;11.70;;;-2.90;70.90;;;;;;4989752;28;46706;-66
2022/12/11 07:26:18;;;;;;;21.20;11.80;;;-3.00;71.10;;;;;;4972388;28;46431;-66
2022/12/11 07:28:43;;;;;;;17.23;9.50;;;-3.00;71.00;;;;;;4987499;28;46472;-65
2022/12/11 07:31:12;;;;;;;19.30;9.97;;;-3.10;69.70;;;;;;4968290;28;46511;-65
2022/12/11 07:33:39;;;;;;;22.88;11.73;;;-3.10;70.60;;;;;;4970686;28;46400;-65
2022/12/11 07:36:06;;;;;;;18.00;8.48;;;-3.10;70.50;;;;;;4983889;28;46521;-65
2022/12/11 07:38:32;;;;;;;16.30;8.73;;;-3.10;70.10;;;;;;4970880;28;46401;-65
2022/12/11 07:41:02;;;;;;;20.17;9.18;;;-3.10;68.90;;;;;;4972738;28;47631;-66
2022/12/11 07:43:28;;;;;;;17.58;8.88;;;-3.00;69.90;;;;;;4970494;28;46277;-65
2022/12/11 07:45:54;;;;;;;19.70;9.23;;;-3.00;69.70;;;;;;4984862;28;45872;-65
2022/12/11 07:48:19;;;;;;;22.20;11.80;;;-3.00;69.50;;;;;;4969285;28;46163;-65
2022/12/11 07:50:45;;;;;;;19.75;11.80;;;-3.10;68.30;;;;;;4968391;28;46106;-65
2022/12/11 07:53:11;;;;;;;17.43;9.00;;;-3.10;69.50;;;;;;4972086;28;46497;-65
2022/12/11 07:55:39;;;;;;;21.13;11.23;;;-3.10;69.80;;;;;;4972482;28;46388;-65
2022/12/11 07:58:05;;;;;;;26.92;13.82;;;-3.10;68.60;;;;;;4969859;28;46364;-64
2022/12/11 08:00:30;;;;;;;30.80;13.70;;;-3.00;68.20;;;;;;4969686;28;47612;-66
2022/12/11 08:02:56;;;;;;;26.33;11.77;;;-3.00;69.20;;;;;;4981780;28;46038;-65
2022/12/11 08:05:21;;;;;;;21.30;10.90;;;-2.90;69.00;;;;;;4970703;28;46418;-64
2022/12/11 08:07:47;;;;;;;28.00;11.47;;;-2.90;68.80;;;;;;4968003;28;46618;-65
2022/12/11 08:10:13;;;;;;;17.33;10.00;;;-2.80;67.60;;;;;;4967903;28;46508;-65
2022/12/11 08:12:38;;;;;;;17.67;9.77;;;-2.80;68.60;;;;;;4972701;28;46440;-65
2022/12/11 08:15:04;;;;;;;17.10;9.60;;;-2.80;68.30;;;;;;4967954;28;46512;-65
2022/12/11 08:17:30;;;;;;;19.83;9.50;;;-2.70;68.40;;;;;;4972018;28;46545;-65
2022/12/11 08:19:55;;;;;;;19.47;9.90;;;-2.70;67.50;;;;;;4972573;28;46768;-65
2022/12/11 08:22:21;;;;;;;17.80;10.37;;;-2.50;68.60;;;;;;4968574;28;46478;-66
2022/12/11 08:24:47;;;;;;;22.33;11.40;;;-2.50;68.30;;;;;;4967764;28;46491;-66
2022/12/11 08:27:12;;;;;;;18.40;10.90;;;-2.40;68.20;;;;;;4964610;28;46722;-65
2022/12/11 08:29:38;;;;;;;19.37;9.67;;;-2.30;66.40;;;;;;4966173;28;46232;-65
2022/12/11 08:32:03;;;;;;;18.80;10.50;;;-2.20;68.70;;;;;;4968467;28;46777;-65
2022/12/11 08:34:29;;;;;;;290.47;126.97;;;-2.10;67.60;;;;;;4963396;28;46458;-65
2022/12/11 08:36:55;;;;;;;22.10;11.63;;;-1.90;67.80;;;;;;4968520;28;46357;-66
2022/12/11 08:39:20;;;;;;;16.87;9.70;;;-1.70;66.90;;;;;;4970385;28;46425;-65
2022/12/11 08:41:46;;;;;;;18.17;9.60;;;-1.60;68.00;;;;;;4968434;28;46223;-65
2022/12/11 08:44:12;;;;;;;21.30;9.97;;;-2.30;67.40;;;;;;4967176;28;46430;-65
2022/12/11 08:46:37;;;;;;;19.58;11.27;;;-1.60;68.00;;;;;;4970459;28;46579;-65
2022/12/11 08:49:03;;;;;;;19.03;10.60;;;-1.50;67.10;;;;;;4968669;28;46380;-66
2022/12/11 08:51:29;;;;;;;15.67;9.23;;;-1.50;69.20;;;;;;4968543;28;46656;-66
2022/12/11 08:53:59;;;;;;;18.30;9.73;;;-1.40;68.10;;;;;;4966640;28;46743;-65
2022/12/11 08:56:26;;;;;;;15.50;9.30;;;-1.40;68.20;;;;;;4983960;28;46488;-64
2022/12/11 08:58:52;;;;;;;18.35;9.18;;;-1.20;67.30;;;;;;4983613;28;46620;-66
2022/12/11 09:01:21;;;;;;;15.00;8.65;;;-1.20;67.90;;;;;;4968547;28;46444;-63
2022/12/11 09:03:49;;;;;;;26.05;13.20;;;-1.10;67.80;;;;;;4982383;28;46593;-65
2022/12/11 09:06:18;;;;;;;17.17;9.27;;;-1.10;67.70;;;;;;4967415;28;46488;-65
2022/12/11 09:08:45;;;;;;;16.73;8.98;;;-1.00;67.80;;;;;;4968809;28;47616;-64
2022/12/11 09:11:14;;;;;;;15.43;8.18;;;-1.00;66.90;;;;;;4968987;28;46406;-64
2022/12/11 09:13:40;;;;;;;15.85;8.98;;;-0.90;68.00;;;;;;4969168;28;46360;-63
2022/12/11 09:16:09;;;;;;;15.75;8.88;;;-0.90;67.70;;;;;;4968263;28;46487;-64
2022/12/11 09:18:36;;;;;;;15.07;9.15;;;-0.70;67.50;;;;;;4969896;28;46396;-64
2022/12/11 09:21:05;;;;;;;17.37;10.13;;;-0.60;66.30;;;;;;4970910;28;46491;-64
2022/12/11 09:23:32;;;;;;;13.93;8.52;;;-0.60;66.90;;;;;;4972086;28;46356;-64
2022/12/11 09:25:58;;;;;;;19.73;9.27;;;-0.40;67.00;;;;;;4969689;28;46025;-64
2022/12/11 09:28:25;;;;;;;14.00;8.45;;;-0.30;66.80;;;;;;4972124;28;46704;-64
2022/12/11 09:30:51;;;;;;;15.95;9.10;;;-0.20;65.40;;;;;;4971268;28;46822;-63
2022/12/11 09:33:17;;;;;;;16.67;8.87;;;-0.20;67.60;;;;;;4971388;28;46384;-64
2022/12/11 09:35:42;;;;;;;16.52;9.93;;;-0.10;66.50;;;;;;4972273;28;46643;-65
2022/12/11 09:38:08;;;;;;;15.10;9.30;;;0.00;65.30;;;;;;4985197;28;46438;-65
2022/12/11 09:40:42;;;;;;;25.07;13.37;;;0.10;65.20;;;;;;4967213;28;46421;-65
2022/12/11 09:43:27;;;;;;;24.70;14.25;;;0.10;66.20;;;;;;4969526;28;46724;-65
2022/12/11 09:45:55;;;;;;;13.35;8.68;;;0.30;66.20;;;;;;4969274;28;46456;-65
2022/12/11 09:48:23;;;;;;;15.90;9.73;;;0.40;65.90;;;;;;4984838;28;47788;-64
2022/12/11 09:50:52;;;;;;;12.73;8.25;;;0.40;64.80;;;;;;4969779;28;46610;-64
2022/12/11 09:53:28;;;;;;;12.80;7.53;;;0.40;66.00;;;;;;4968657;28;47072;-64
2022/12/11 09:56:10;;;;;;;13.05;7.57;;;0.40;66.00;;;;;;4971766;28;46492;-65
2022/12/11 09:58:54;;;;;;;14.15;7.97;;;0.40;66.30;;;;;;4969187;28;46416;-65
2022/12/11 10:01:46;;;;;;;15.05;8.50;;;0.30;65.30;;;;;;4968834;28;46599;-64
2022/12/11 10:04:23;;;;;;;15.05;8.50;;;0.20;66.80;;;;;;4962345;28;46551;-65
2022/12/11 10:07:13;;;;;;;15.32;8.18;;;0.20;66.70;;;;;;4971965;28;45882;-69
2022/12/11 10:10:03;;;;;;;13.40;7.32;;;0.30;65.10;;;;;;4967183;28;46458;-65
2022/12/11 10:12:32;;;;;;;14.25;8.20;;;0.40;66.20;;;;;;4969770;28;46519;-64
2022/12/11 10:15:12;;;;;;;15.05;8.88;;;0.40;65.90;;;;;;4971976;28;46107;-64
2022/12/11 10:17:40;;;;;;;15.20;7.80;;;0.40;65.80;;;;;;4973005;28;46492;-65
2022/12/11 10:20:22;;;;;;;17.55;7.88;;;0.50;64.50;;;;;;4984309;28;48016;-64
2022/12/11 10:22:50;;;;;;;13.75;7.18;;;0.60;65.60;;;;;;4968706;28;46377;-64
2022/12/11 10:25:28;;;;;;;13.38;7.60;;;0.50;65.30;;;;;;4968694;28;46499;-62
2022/12/11 10:27:54;;;;;;;12.32;7.15;;;0.50;65.50;;;;;;4972432;28;46464;-66
2022/12/11 10:30:33;;;;;;;18.23;7.70;;;0.60;64.40;;;;;;4971197;28;46632;-64
2022/12/11 10:33:17;;;;;;;17.02;7.05;;;0.60;65.60;;;;;;4971575;28;46389;-64
2022/12/11 10:35:49;;;;;;;11.18;6.78;;;0.60;65.40;;;;;;4969599;28;46323;-65
2022/12/11 10:38:16;;;;;;;11.32;6.43;;;0.50;65.30;;;;;;4972401;28;46056;-63
2022/12/11 10:40:48;;;;;;;16.80;7.15;;;0.50;64.20;;;;;;4970178;28;47545;-64
2022/12/11 10:43:14;;;;;;;14.45;7.75;;;0.50;65.10;;;;;;4970672;28;46445;-63
2022/12/11 10:45:53;;;;;;;8.67;5.13;;;0.60;64.10;;;;;;4969887;28;46488;-64
2022/12/11 10:48:19;;;;;;;9.07;4.50;;;0.60;63.30;;;;;;4971896;28;46377;-64
2022/12/11 10:51:04;;;;;;;63.53;24.55;;;0.60;61.00;;;;;;4970981;28;46460;-63
2022/12/11 10:53:32;;;;;;;9.60;5.90;;;0.60;61.60;;;;;;4968074;28;46577;-63
2022/12/11 10:55:59;;;;;;;9.07;5.32;;;0.80;61.10;;;;;;4973272;28;45883;-64
2022/12/11 10:58:28;;;;;;;10.93;5.72;;;0.70;59.90;;;;;;4971529;28;46545;-64
2022/12/11 11:01:04;;;;;;;7.03;4.40;;;0.70;57.90;;;;;;4970895;28;46463;-65
2022/12/11 11:03:32;;;;;;;9.52;5.15;;;0.80;57.90;;;;;;4979409;28;46480;-66
2022/12/11 11:06:18;;;;;;;6.85;4.25;;;0.90;57.70;;;;;;4971795;28;46531;-65
2022/12/11 11:08:46;;;;;;;8.00;4.60;;;1.20;57.70;;;;;;4967905;28;46360;-65
2022/12/11 11:11:29;;;;;;;7.80;5.00;;;1.40;55.60;;;;;;4970880;28;47585;-65
2022/12/11 11:14:15;;;;;;;8.40;3.92;;;1.40;56.00;;;;;;4966624;28;46465;-65
2022/12/11 11:16:44;;;;;;;7.72;5.05;;;1.30;55.30;;;;;;4970046;28;46415;-64
2022/12/11 11:19:48;;;;;;;8.05;5.25;;;1.30;54.50;;;;;;4977312;28;46616;-65
2022/12/11 11:22:17;;;;;;;9.20;4.88;;;1.30;55.90;;;;;;4910360;28;46772;-64
2022/12/11 11:24:54;;;;;;;9.88;4.95;;;1.20;56.50;;;;;;4907168;28;46498;-65
2022/12/11 11:27:35;;;;;;;8.57;5.03;;;1.10;57.10;;;;;;4935894;28;45946;-65
2022/12/11 11:30:25;;;;;;;6.43;4.03;;;1.10;55.80;;;;;;4971387;28;46548;-64
2022/12/11 11:32:54;;;;;;;9.10;4.90;;;1.10;57.20;;;;;;4963408;28;46509;-64
2022/12/11 11:35:26;;;;;;;10.60;5.10;;;1.10;57.80;;;;;;4969717;28;46504;-65
2022/12/11 11:38:16;;;;;;;8.70;4.75;;;1.70;55.80;;;;;;4970864;28;46429;-64
2022/12/11 11:40:50;;;;;;;7.80;4.22;;;1.80;55.60;;;;;;4966315;28;46478;-65
2022/12/11 11:43:48;;;;;;;8.50;5.10;;;2.00;56.30;;;;;;4970956;28;46508;-64
2022/12/11 11:46:28;;;;;;;7.40;4.75;;;2.20;56.10;;;;;;4936633;28;46464;-64
2022/12/11 11:49:09;;;;;;;14.18;3.85;;;2.70;54.80;;;;;;4968278;28;46081;-64
2022/12/11 11:51:42;;;;;;;9.40;4.72;;;2.70;55.70;;;;;;4969903;28;46493;-65
2022/12/11 11:54:24;;;;;;;6.55;4.15;;;2.70;55.00;;;;;;4968044;28;46727;-64
2022/12/11 11:56:55;;;;;;;6.40;4.30;;;2.70;55.30;;;;;;4966966;28;46107;-64
2022/12/11 11:59:31;;;;;;;7.38;3.95;;;2.60;55.70;;;;;;4967628;28;45849;-64
2022/12/11 12:01:57;;;;;;;7.85;4.55;;;2.40;55.90;;;;;;4970394;28;46460;-64
2022/12/11 12:04:25;;;;;;;7.38;4.25;;;2.30;55.80;;;;;;4969003;28;48533;-65
2022/12/11 12:07:15;;;;;;;8.68;4.80;;;2.00;55.40;;;;;;4971173;28;46715;-64
2022/12/11 12:09:59;;;;;;;47.35;21.33;;;1.50;54.40;;;;;;4966274;28;45892;-64
2022/12/11 12:12:36;;;;;;;8.35;4.70;;;1.50;55.70;;;;;;4970675;28;46338;-64
2022/12/11 12:15:36;;;;;;;8.55;4.60;;;1.30;55.60;;;;;;4973152;28;46408;-63
2022/12/11 12:18:23;;;;;;;6.63;4.30;;;0.90;55.40;;;;;;4965909;28;45900;-64
2022/12/11 12:21:19;;;;;;;7.93;4.70;;;0.70;55.00;;;;;;4967352;28;46586;-63
2022/12/11 12:24:04;;;;;;;6.90;4.50;;;0.90;56.20;;;;;;4984807;28;46465;-64
2022/12/11 12:26:36;;;;;;;8.85;5.20;;;1.20;55.80;;;;;;4967622;28;46426;-63
2022/12/11 12:29:43;;;;;;;9.65;4.50;;;1.70;54.00;;;;;;4967885;28;46392;-64
2022/12/11 12:32:18;;;;;;;14.18;7.57;;;1.70;54.70;;;;;;4968663;28;46879;-63
2022/12/11 12:34:50;;;;;;;14.82;7.25;;;1.90;54.70;;;;;;4969233;28;46469;-64
2022/12/11 12:37:51;;;;;;;41.58;16.08;;;1.90;54.00;;;;;;4969829;28;46744;-64
2022/12/11 12:40:31;;;;;;;28.67;9.68;;;1.80;54.30;;;;;;4965974;28;46423;-65
2022/12/11 12:43:22;;;;;;;24.00;8.70;;;1.80;53.80;;;;;;4969583;28;46501;-63
2022/12/11 12:46:01;;;;;;;54.85;16.60;;;1.50;53.80;;;;;;4966713;28;46543;-65
2022/12/11 12:48:27;;;;;;;26.27;12.30;;;1.50;54.20;;;;;;4974710;28;47658;-64
2022/12/11 12:50:54;;;;;;;10.05;5.85;;;1.60;53.30;;;;;;4970457;28;46520;-65
2022/12/11 12:53:24;;;;;;;8.75;5.03;;;1.70;54.40;;;;;;4965538;28;46389;-65
2022/12/11 12:55:51;;;;;;;10.43;5.45;;;2.00;54.30;;;;;;4968197;28;46618;-65
2022/12/11 12:58:43;;;;;;;8.98;4.55;;;2.30;54.00;;;;;;4972273;28;46505;-65
2022/12/11 13:01:19;;;;;;;8.77;5.25;;;2.40;52.30;;;;;;4969134;28;46385;-64